createdAt,value
2017-08-12T00:01:33.999Z,48.17
2017-08-12T00:04:01.555Z,45.63
2017-08-12T00:06:29.066Z,51.47
2017-08-12T00:08:56.970Z,48.00
2017-08-12T00:11:24.510Z,52.83
2017-08-12T00:13:52.419Z,59.07
2017-08-12T00:16:19.938Z,42.53
2017-08-12T00:18:47.895Z,40.77
2017-08-12T00:21:15.812Z,41.47
2017-08-12T00:23:43.338Z,46.37
2017-08-12T00:26:11.267Z,42.90
2017-08-12T00:28:38.801Z,50.50
2017-08-12T00:31:06.335Z,74.57
2017-08-12T00:33:33.871Z,57.33
2017-08-12T00:36:01.802Z,47.47
2017-08-12T00:38:29.338Z,54.80
2017-08-12T00:40:56.888Z,53.37
2017-08-12T00:43:24.430Z,71.30
2017-08-12T00:45:52.342Z,42.07
2017-08-12T00:48:19.879Z,49.43
2017-08-12T00:50:47.790Z,48.93
2017-08-12T00:53:15.316Z,41.10
2017-08-12T00:55:42.855Z,45.03
2017-08-12T00:58:10.762Z,47.83
2017-08-12T01:00:38.279Z,49.10
2017-08-12T01:03:06.222Z,40.43
2017-08-12T01:05:33.730Z,37.23
2017-08-12T01:08:01.244Z,37.73
2017-08-12T01:10:28.782Z,44.50
2017-08-12T01:12:56.291Z,54.33
2017-08-12T01:15:24.195Z,54.07
2017-08-12T01:17:51.730Z,55.60
2017-08-12T01:20:19.638Z,64.00
2017-08-12T01:22:47.151Z,59.77
2017-08-12T01:25:15.082Z,69.27
2017-08-12T01:27:42.595Z,60.67
2017-08-12T01:30:10.120Z,48.10
2017-08-12T01:32:37.658Z,50.67
2017-08-12T01:35:05.173Z,55.60
2017-08-12T01:37:33.083Z,58.30
2017-08-12T01:40:00.624Z,64.00
2017-08-12T01:42:28.136Z,52.63
2017-08-12T01:44:55.650Z,51.80
2017-08-12T01:47:24.115Z,47.37
2017-08-12T01:49:51.661Z,60.37
2017-08-12T01:52:19.594Z,57.43
2017-08-12T01:54:47.116Z,54.60
2017-08-12T01:57:14.630Z,68.10
2017-08-12T01:59:42.163Z,59.90
2017-08-12T02:02:09.677Z,80.10
2017-08-12T02:04:37.202Z,66.17
2017-08-12T02:07:04.736Z,64.73
2017-08-12T02:09:32.251Z,61.67
2017-08-12T02:12:00.163Z,61.23
2017-08-12T02:14:27.702Z,60.23
2017-08-12T02:16:55.220Z,67.47
2017-08-12T02:19:23.136Z,80.77
2017-08-12T02:21:50.671Z,67.23
2017-08-12T02:24:18.582Z,70.53
2017-08-12T02:26:46.098Z,54.07
2017-08-12T02:29:14.034Z,50.90
2017-08-12T02:31:41.563Z,35.47
2017-08-12T02:34:09.082Z,39.60
2017-08-12T02:36:37.014Z,37.70
2017-08-12T02:39:04.531Z,32.37
2017-08-12T02:41:32.045Z,25.77
2017-08-12T02:43:59.594Z,26.20
2017-08-12T02:46:27.107Z,24.20
2017-08-12T02:48:55.011Z,29.10
2017-08-12T02:51:22.560Z,23.10
2017-08-12T02:53:50.075Z,31.13
2017-08-12T02:56:17.984Z,34.83
2017-08-12T02:58:45.523Z,34.83
2017-08-12T03:01:13.521Z,30.30
2017-08-12T03:03:41.031Z,33.13
2017-08-12T03:06:08.974Z,32.20
2017-08-12T03:08:36.482Z,31.97
2017-08-12T03:11:04.399Z,31.23
2017-08-12T03:13:31.959Z,29.80
2017-08-12T03:15:59.462Z,24.63
2017-08-12T03:18:27.375Z,28.70
2017-08-12T03:20:54.906Z,31.30
2017-08-12T03:23:22.426Z,30.23
2017-08-12T03:25:49.956Z,26.77
2017-08-12T03:28:17.502Z,33.43
2017-08-12T03:30:45.015Z,30.27
2017-08-12T03:33:12.539Z,35.33
2017-08-12T03:35:40.082Z,37.00
2017-08-12T03:38:07.594Z,38.80
2017-08-12T03:40:35.102Z,35.00
2017-08-12T03:43:02.641Z,37.57
2017-08-12T03:45:30.546Z,38.53
2017-08-12T03:47:58.051Z,32.27
2017-08-12T03:50:25.601Z,32.73
2017-08-12T03:52:53.115Z,35.00
2017-08-12T03:55:20.625Z,27.50
2017-08-12T03:57:48.225Z,31.53
2017-08-12T04:00:15.738Z,27.20
2017-08-12T04:02:43.254Z,27.53
2017-08-12T04:05:10.790Z,34.23
2017-08-12T04:07:38.687Z,27.03
2017-08-12T04:10:06.200Z,34.20
2017-08-12T04:12:33.759Z,37.83
2017-08-12T04:15:01.275Z,39.23
2017-08-12T04:17:28.778Z,40.13
2017-08-12T04:19:56.317Z,49.77
2017-08-12T04:22:23.854Z,49.27
2017-08-12T04:24:51.371Z,40.23
2017-08-12T04:27:19.312Z,41.60
2017-08-12T04:29:46.826Z,39.63
2017-08-12T04:32:14.340Z,48.27
2017-08-12T04:34:41.895Z,41.77
2017-08-12T04:37:09.423Z,50.87
2017-08-12T04:39:36.934Z,45.40
2017-08-12T04:42:04.870Z,49.67
2017-08-12T04:44:32.383Z,34.93
2017-08-12T04:47:00.299Z,46.33
2017-08-12T04:49:27.843Z,42.27
2017-08-12T04:51:55.354Z,45.50
2017-08-12T04:54:22.866Z,43.77
2017-08-12T04:56:50.419Z,33.67
2017-08-12T04:59:17.935Z,30.97
2017-08-12T05:01:45.454Z,31.80
2017-08-12T05:04:13.021Z,29.07
2017-08-12T05:06:40.522Z,33.93
2017-08-12T05:09:08.446Z,29.10
2017-08-12T05:11:35.978Z,51.73
2017-08-12T05:14:03.492Z,27.20
2017-08-12T05:16:31.008Z,37.37
2017-08-12T05:18:58.542Z,26.07
2017-08-12T05:21:26.445Z,24.50
2017-08-12T05:23:53.950Z,33.27
2017-08-12T05:26:21.486Z,42.87
2017-08-12T05:28:49.002Z,38.80
2017-08-12T05:31:16.511Z,37.97
2017-08-12T05:33:44.071Z,39.03
2017-08-12T05:36:11.628Z,25.70
2017-08-12T05:38:39.146Z,30.20
2017-08-12T05:41:06.666Z,24.10
2017-08-12T05:43:34.202Z,21.90
2017-08-12T05:46:01.716Z,21.10
2017-08-12T05:48:29.626Z,26.00
2017-08-12T05:50:57.167Z,19.67
2017-08-12T05:53:24.683Z,28.00
2017-08-12T05:55:52.194Z,21.90
2017-08-12T05:58:19.731Z,23.87
2017-08-12T06:00:47.638Z,27.33
2017-08-12T06:03:15.148Z,27.20
2017-08-12T06:05:43.088Z,32.27
2017-08-12T06:08:10.609Z,28.00
2017-08-12T06:10:38.122Z,33.70
2017-08-12T06:13:05.654Z,25.00
2017-08-12T06:15:33.173Z,35.00
2017-08-12T06:18:00.687Z,30.83
2017-08-12T06:20:28.218Z,24.90
2017-08-12T06:22:56.218Z,18.20
2017-08-12T06:25:23.726Z,15.17
2017-08-12T06:27:51.267Z,21.97
2017-08-12T06:30:19.178Z,18.67
2017-08-12T06:32:46.651Z,16.47
2017-08-12T06:35:14.224Z,19.00
2017-08-12T06:37:41.736Z,22.07
2017-08-12T06:40:09.260Z,19.10
2017-08-12T06:42:36.806Z,16.27
2017-08-12T06:45:04.423Z,18.40
2017-08-12T06:47:31.954Z,16.17
2017-08-12T06:49:59.890Z,16.27
2017-08-12T06:52:27.412Z,18.00
2017-08-12T06:54:54.930Z,16.97
2017-08-12T06:57:22.462Z,18.80
2017-08-12T06:59:49.974Z,41.93
2017-08-12T07:02:17.883Z,32.27
2017-08-12T07:04:45.417Z,31.50
2017-08-12T07:07:12.927Z,23.13
2017-08-12T07:09:40.430Z,23.23
2017-08-12T07:12:08.366Z,19.30
2017-08-12T07:14:35.885Z,17.50
2017-08-12T07:17:03.398Z,38.50
2017-08-12T07:19:31.326Z,16.10
2017-08-12T07:21:58.867Z,12.67
2017-08-12T07:24:26.384Z,11.30
2017-08-12T07:26:53.895Z,10.13
2017-08-12T07:29:21.422Z,11.53
2017-08-12T07:31:49.366Z,11.27
2017-08-12T07:34:16.886Z,15.30
2017-08-12T07:36:44.389Z,10.13
2017-08-12T07:39:11.922Z,9.63
2017-08-12T07:41:39.433Z,9.30
2017-08-12T07:44:07.332Z,9.50
2017-08-12T07:46:34.854Z,9.50
2017-08-12T07:49:02.765Z,11.13
2017-08-12T07:51:30.275Z,8.33
2017-08-12T07:53:57.810Z,8.80
2017-08-12T07:56:25.311Z,10.80
2017-08-12T07:58:53.215Z,8.60
2017-08-12T08:01:20.746Z,14.60
2017-08-12T08:03:48.820Z,9.30
2017-08-12T08:06:16.718Z,20.90
2017-08-12T08:08:44.250Z,34.63
2017-08-12T08:11:12.146Z,10.57
2017-08-12T08:13:39.647Z,9.30
2017-08-12T08:16:07.178Z,11.90
2017-08-12T08:18:34.682Z,13.37
2017-08-12T08:21:02.610Z,14.60
2017-08-12T08:23:30.118Z,11.50
2017-08-12T08:25:58.019Z,18.23
2017-08-12T08:28:25.546Z,26.07
2017-08-12T08:30:53.052Z,8.80
2017-08-12T08:33:20.567Z,12.03
2017-08-12T08:35:48.483Z,9.30
2017-08-12T08:38:15.987Z,14.10
2017-08-12T08:40:43.882Z,7.60
2017-08-12T08:43:11.407Z,7.33
2017-08-12T08:45:38.914Z,10.73
2017-08-12T08:48:06.413Z,6.13
2017-08-12T08:50:34.262Z,12.17
2017-08-12T08:53:01.772Z,7.37
2017-08-12T08:55:29.677Z,8.10
2017-08-12T08:57:57.202Z,9.83
2017-08-12T09:00:25.138Z,9.77
2017-08-12T09:02:52.641Z,6.13
2017-08-12T09:05:20.566Z,7.30
2017-08-12T09:07:48.066Z,6.27
2017-08-12T09:10:15.965Z,7.30
2017-08-12T09:12:43.491Z,10.40
2017-08-12T09:15:11.382Z,9.70
2017-08-12T09:17:38.919Z,10.13
2017-08-12T09:20:06.837Z,14.03
2017-08-12T09:22:34.343Z,8.33
2017-08-12T09:25:02.254Z,14.90
2017-08-12T09:27:29.788Z,7.43
2017-08-12T09:29:57.681Z,10.07
2017-08-12T09:32:25.183Z,9.00
2017-08-12T09:34:52.710Z,9.47
2017-08-12T09:37:20.212Z,11.53
2017-08-12T09:39:47.932Z,9.30
2017-08-12T09:42:15.475Z,14.83
2017-08-12T09:44:42.992Z,16.30
2017-08-12T09:47:10.499Z,18.23
2017-08-12T09:49:38.022Z,10.07
2017-08-12T09:52:05.928Z,15.67
2017-08-12T09:54:33.433Z,14.53
2017-08-12T09:57:00.971Z,11.53
2017-08-12T09:59:28.479Z,12.40
2017-08-12T10:01:56.346Z,11.00
2017-08-12T10:04:23.901Z,10.80
2017-08-12T10:06:51.827Z,11.03
2017-08-12T10:09:19.335Z,12.60
2017-08-12T10:11:47.266Z,17.97
2017-08-12T10:14:14.769Z,13.17
2017-08-12T10:16:42.695Z,14.10
2017-08-12T10:19:10.222Z,11.00
2017-08-12T10:21:37.731Z,10.43
2017-08-12T10:24:05.273Z,18.13
2017-08-12T10:26:32.787Z,12.53
2017-08-12T10:29:00.683Z,11.80
2017-08-12T10:31:28.213Z,12.80
2017-08-12T10:33:56.111Z,14.73
2017-08-12T10:36:23.615Z,11.63
2017-08-12T10:38:51.141Z,11.53
2017-08-12T10:41:18.667Z,10.40
2017-08-12T10:43:46.170Z,9.73
2017-08-12T10:46:13.631Z,10.33
2017-08-12T10:48:41.192Z,15.10
2017-08-12T10:51:08.689Z,15.93
2017-08-12T10:53:36.581Z,8.90
2017-08-12T10:56:04.102Z,9.60
2017-08-12T10:58:31.602Z,15.40
2017-08-12T11:00:59.111Z,13.40
2017-08-12T11:03:26.635Z,9.93
2017-08-12T11:05:54.139Z,12.57
2017-08-12T11:08:21.642Z,26.20
2017-08-12T11:10:49.171Z,12.17
2017-08-12T11:13:17.076Z,11.80
2017-08-12T11:15:44.586Z,10.30
2017-08-12T11:18:12.119Z,12.70
2017-08-12T11:20:39.622Z,11.60
2017-08-12T11:23:07.130Z,10.53
2017-08-12T11:25:34.669Z,13.40
2017-08-12T11:28:02.199Z,10.50
2017-08-12T11:30:30.094Z,11.63
2017-08-12T11:32:58.025Z,10.67
2017-08-12T11:35:25.527Z,9.80
2017-08-12T11:37:53.027Z,8.73
2017-08-12T11:40:20.545Z,14.30
2017-08-12T11:42:48.038Z,9.00
2017-08-12T11:45:15.546Z,8.60
2017-08-12T11:47:43.486Z,8.30
2017-08-12T11:50:10.986Z,7.90
2017-08-12T11:52:38.891Z,12.47
2017-08-12T11:55:06.415Z,8.27
2017-08-12T11:57:34.310Z,8.77
2017-08-12T12:00:01.829Z,8.00
2017-08-12T12:02:29.778Z,12.80
2017-08-12T12:04:57.303Z,14.13
2017-08-12T12:07:24.830Z,11.30
2017-08-12T12:09:52.751Z,7.80
2017-08-12T12:12:20.250Z,9.37
2017-08-12T12:14:48.147Z,7.23
2017-08-12T12:17:15.679Z,10.63
2017-08-12T12:19:43.589Z,11.50
2017-08-12T12:22:11.110Z,7.40
2017-08-12T12:24:39.007Z,7.97
2017-08-12T12:27:06.519Z,9.40
2017-08-12T12:29:34.045Z,7.90
2017-08-12T12:32:01.546Z,8.37
2017-08-12T12:34:29.052Z,8.57
2017-08-12T12:36:56.579Z,13.93
2017-08-12T12:39:24.485Z,6.73
2017-08-12T12:41:51.987Z,7.00
2017-08-12T12:44:19.885Z,7.07
2017-08-12T12:46:47.780Z,20.67
2017-08-12T12:49:15.282Z,7.50
2017-08-12T12:51:42.820Z,9.20
2017-08-12T12:54:10.317Z,6.97
2017-08-12T12:56:37.822Z,10.10
2017-08-12T12:59:05.351Z,8.80
2017-08-12T13:01:33.248Z,7.47
2017-08-12T13:04:00.746Z,6.87
2017-08-12T13:06:28.270Z,12.50
2017-08-12T13:08:55.770Z,7.10
2017-08-12T13:11:23.270Z,8.73
2017-08-12T13:13:50.800Z,7.23
2017-08-12T13:16:18.298Z,8.93
2017-08-12T13:18:45.807Z,11.37
2017-08-12T13:21:13.334Z,8.10
2017-08-12T13:23:40.846Z,8.00
2017-08-12T13:26:08.742Z,9.73
2017-08-12T13:28:36.270Z,7.47
2017-08-12T13:31:04.174Z,8.03
2017-08-12T13:33:31.673Z,7.67
2017-08-12T13:35:59.194Z,7.30
2017-08-12T13:38:26.695Z,8.80
2017-08-12T13:40:54.219Z,7.40
2017-08-12T13:43:21.755Z,7.83
2017-08-12T13:45:49.659Z,7.50
2017-08-12T13:48:17.158Z,8.63
2017-08-12T13:50:44.682Z,8.50
2017-08-12T13:53:12.186Z,7.03
2017-08-12T13:55:39.687Z,7.10
2017-08-12T13:58:07.210Z,11.63
2017-08-12T14:00:34.707Z,6.80
2017-08-12T14:03:02.211Z,6.90
2017-08-12T14:05:29.743Z,6.70
2017-08-12T14:07:57.243Z,6.90
2017-08-12T14:10:24.793Z,7.60
2017-08-12T14:12:52.330Z,6.27
2017-08-12T14:15:19.830Z,6.93
2017-08-12T14:17:47.338Z,7.53
2017-08-12T14:20:14.866Z,9.43
2017-08-12T14:22:42.763Z,7.70
2017-08-12T14:25:10.267Z,9.33
2017-08-12T14:27:37.798Z,13.50
2017-08-12T14:30:05.306Z,16.53
2017-08-12T14:32:33.197Z,8.40
2017-08-12T14:35:00.723Z,7.40
2017-08-12T14:37:28.238Z,7.07
2017-08-12T14:39:55.734Z,8.00
2017-08-12T14:42:23.287Z,8.53
2017-08-12T14:44:50.795Z,8.63
2017-08-12T14:47:18.314Z,7.83
2017-08-12T14:49:45.815Z,7.00
2017-08-12T14:52:13.331Z,8.30
2017-08-12T14:54:40.859Z,7.93
2017-08-12T14:57:08.366Z,7.30
2017-08-12T14:59:36.266Z,7.30
2017-08-12T15:02:03.802Z,7.53
2017-08-12T15:04:31.707Z,9.37
2017-08-12T15:06:59.210Z,6.90
2017-08-12T15:09:26.738Z,6.57
2017-08-12T15:11:54.238Z,8.53
2017-08-12T15:14:21.747Z,10.17
2017-08-12T15:16:49.291Z,6.90
2017-08-12T15:19:16.799Z,5.93
2017-08-12T15:21:44.304Z,6.10
2017-08-12T15:24:12.230Z,6.20
2017-08-12T15:26:39.757Z,10.03
2017-08-12T15:29:07.263Z,5.93
2017-08-12T15:31:34.790Z,5.77
2017-08-12T15:34:02.296Z,6.10
2017-08-12T15:36:30.214Z,5.90
2017-08-12T15:38:57.739Z,6.47
2017-08-12T15:41:25.634Z,10.87
2017-08-12T15:43:53.143Z,14.37
2017-08-12T15:46:20.670Z,7.37
2017-08-12T15:48:48.171Z,6.63
2017-08-12T15:51:16.066Z,6.03
2017-08-12T15:53:43.599Z,11.90
2017-08-12T15:56:11.495Z,6.20
2017-08-12T15:58:38.999Z,6.83
2017-08-12T16:01:06.527Z,6.93
2017-08-12T16:03:34.026Z,6.40
2017-08-12T16:06:01.527Z,6.20
2017-08-12T16:08:29.450Z,8.37
2017-08-12T16:10:56.951Z,9.43
2017-08-12T16:13:24.848Z,6.00
2017-08-12T16:15:52.376Z,9.70
2017-08-12T16:18:20.272Z,10.97
2017-08-12T16:20:47.776Z,6.77
2017-08-12T16:23:15.303Z,7.03
2017-08-12T16:25:42.841Z,12.30
2017-08-12T16:28:10.338Z,9.63
2017-08-12T16:30:37.833Z,8.40
2017-08-12T16:33:05.359Z,9.87
2017-08-12T16:35:32.862Z,6.40
2017-08-12T16:38:00.366Z,11.70
2017-08-12T16:40:27.887Z,22.50
2017-08-12T16:42:55.785Z,8.20
2017-08-12T16:45:23.286Z,11.33
2017-08-12T16:47:50.820Z,8.37
2017-08-12T16:50:18.326Z,8.13
2017-08-12T16:52:45.834Z,16.97
2017-08-12T16:55:13.367Z,20.43
2017-08-12T16:57:40.865Z,7.90
2017-08-12T17:00:08.370Z,12.43
2017-08-12T17:02:36.289Z,11.70
2017-08-12T17:05:03.792Z,7.73
2017-08-12T17:07:31.693Z,9.40
2017-08-12T17:09:59.226Z,22.93
2017-08-12T17:12:27.122Z,10.53
2017-08-12T17:14:54.621Z,7.33
2017-08-12T17:17:22.148Z,7.40
2017-08-12T17:19:49.645Z,6.53
2017-08-12T17:22:17.145Z,10.00
2017-08-12T17:24:45.061Z,6.77
2017-08-12T17:27:12.558Z,9.23
2017-08-12T17:29:40.450Z,9.60
2017-08-12T17:32:07.973Z,7.30
2017-08-12T17:34:35.475Z,7.97
2017-08-12T17:37:02.980Z,17.27
2017-08-12T17:39:30.506Z,58.30
2017-08-12T17:41:58.025Z,37.60
2017-08-12T17:44:25.924Z,15.60
2017-08-12T17:46:53.479Z,7.73
2017-08-12T17:49:21.006Z,28.33
2017-08-12T17:51:48.501Z,25.30
2017-08-12T17:54:16.035Z,13.47
2017-08-12T17:56:43.947Z,14.30
2017-08-12T17:59:11.447Z,8.20
2017-08-12T18:01:38.982Z,19.37
2017-08-12T18:04:06.491Z,6.50
2017-08-12T18:06:34.398Z,13.27
2017-08-12T18:09:01.971Z,19.00
2017-08-12T18:11:29.482Z,11.37
2017-08-12T18:13:57.383Z,17.40
2017-08-12T18:16:25.256Z,14.70
2017-08-12T18:18:52.757Z,14.90
2017-08-12T18:21:20.273Z,13.23
2017-08-12T18:23:47.801Z,11.20
2017-08-12T18:26:15.707Z,9.23
2017-08-12T18:28:43.206Z,24.47
2017-08-12T18:31:10.759Z,33.93
2017-08-12T18:33:38.270Z,9.10
2017-08-12T18:36:05.779Z,8.40
2017-08-12T18:38:33.310Z,9.83
2017-08-12T18:41:00.806Z,7.33
2017-08-12T18:43:28.307Z,6.50
2017-08-12T18:45:55.830Z,7.20
2017-08-12T18:48:23.337Z,13.80
2017-08-12T18:50:50.834Z,27.90
2017-08-12T18:53:18.360Z,8.90
2017-08-12T18:55:45.890Z,7.23
2017-08-12T18:58:13.790Z,8.97
2017-08-12T19:00:41.299Z,8.13
2017-08-12T19:03:08.826Z,22.13
2017-08-12T19:05:36.335Z,7.87
2017-08-12T19:08:04.235Z,8.10
2017-08-12T19:10:31.759Z,9.00
2017-08-12T19:12:59.658Z,7.93
2017-08-12T19:15:27.166Z,11.13
2017-08-12T19:17:54.706Z,7.37
2017-08-12T19:20:22.211Z,9.37
2017-08-12T19:22:50.127Z,10.83
2017-08-12T19:25:17.666Z,7.63
2017-08-12T19:27:45.171Z,8.03
2017-08-12T19:30:12.671Z,7.70
2017-08-12T19:32:40.602Z,11.53
2017-08-12T19:35:08.103Z,8.93
2017-08-12T19:37:35.608Z,9.37
2017-08-12T19:40:03.151Z,11.43
2017-08-12T19:42:30.659Z,8.03
2017-08-12T19:44:58.167Z,10.60
2017-08-12T19:47:25.698Z,15.20
2017-08-12T19:49:53.602Z,13.57
2017-08-12T19:52:21.136Z,8.10
2017-08-12T19:54:48.676Z,8.40
2017-08-12T19:57:16.589Z,10.33
2017-08-12T19:59:44.094Z,10.77
2017-08-12T20:02:11.635Z,10.93
2017-08-12T20:04:39.184Z,14.90
2017-08-12T20:07:06.691Z,11.40
2017-08-12T20:09:34.615Z,12.60
2017-08-12T20:12:02.124Z,9.60
2017-08-12T20:14:30.031Z,16.93
2017-08-12T20:16:57.558Z,10.40
2017-08-12T20:19:25.458Z,13.30
2017-08-12T20:21:52.975Z,12.47
2017-08-12T20:24:20.907Z,11.87
2017-08-12T20:26:48.410Z,20.20
2017-08-12T20:29:16.314Z,11.20
2017-08-12T20:31:43.847Z,9.40
2017-08-12T20:34:11.743Z,12.83
2017-08-12T20:36:39.252Z,14.23
2017-08-12T20:39:06.785Z,15.87
2017-08-12T20:41:34.334Z,12.77
2017-08-12T20:44:01.835Z,14.90
2017-08-12T20:46:29.379Z,16.90
2017-08-12T20:48:56.900Z,11.70
2017-08-12T20:51:24.425Z,17.80
2017-08-12T20:53:52.330Z,14.87
2017-08-12T20:56:19.847Z,11.80
2017-08-12T20:58:47.774Z,13.87
2017-08-12T21:01:15.283Z,14.00
2017-08-12T21:03:43.199Z,11.53
2017-08-12T21:06:10.739Z,18.20
2017-08-12T21:08:38.275Z,14.53
2017-08-12T21:11:06.213Z,15.80
2017-08-12T21:13:33.727Z,21.20
2017-08-12T21:16:01.271Z,22.93
2017-08-12T21:18:29.183Z,18.43
2017-08-12T21:20:56.720Z,20.80
2017-08-12T21:23:24.267Z,19.60
2017-08-12T21:25:51.791Z,24.13
2017-08-12T21:28:19.306Z,24.17
2017-08-12T21:30:46.850Z,32.77
2017-08-12T21:33:14.372Z,23.97
2017-08-12T21:35:41.905Z,19.73
2017-08-12T21:38:09.442Z,19.23
2017-08-12T21:40:36.951Z,24.90
2017-08-12T21:43:04.468Z,20.37
2017-08-12T21:45:32.008Z,23.73
2017-08-12T21:47:59.523Z,18.13
2017-08-12T21:50:27.052Z,20.50
2017-08-12T21:52:54.582Z,24.23
2017-08-12T21:55:22.494Z,23.53
2017-08-12T21:57:50.000Z,26.00
2017-08-12T22:00:17.939Z,20.97
2017-08-12T22:02:45.459Z,21.17
2017-08-12T22:05:12.975Z,16.40
2017-08-12T22:07:40.514Z,21.53
2017-08-12T22:10:08.047Z,19.13
2017-08-12T22:12:35.586Z,19.77
2017-08-12T22:15:03.503Z,20.77
2017-08-12T22:17:31.019Z,21.33
2017-08-12T22:19:58.567Z,19.03
2017-08-12T22:22:26.476Z,17.27
2017-08-12T22:24:53.986Z,22.00
2017-08-12T22:27:21.518Z,21.27
2017-08-12T22:29:49.035Z,16.70
2017-08-12T22:32:16.550Z,15.17
2017-08-12T22:34:44.092Z,19.27
2017-08-12T22:37:11.598Z,15.90
2017-08-12T22:39:39.518Z,22.63
2017-08-12T22:42:07.051Z,27.73
2017-08-12T22:44:34.577Z,22.40
2017-08-12T22:47:02.479Z,20.10
2017-08-12T22:49:30.014Z,15.73
2017-08-12T22:51:57.922Z,18.40
2017-08-12T22:54:25.435Z,15.67
2017-08-12T22:56:53.367Z,25.63
2017-08-12T22:59:20.873Z,14.27
2017-08-12T23:01:48.779Z,14.33
2017-08-12T23:04:16.315Z,17.30
2017-08-12T23:06:44.218Z,15.93
2017-08-12T23:09:11.734Z,18.03
2017-08-12T23:11:39.657Z,18.70
2017-08-12T23:14:07.170Z,14.60
2017-08-12T23:16:35.078Z,14.20
2017-08-12T23:19:02.622Z,16.33
2017-08-12T23:21:30.135Z,25.67
2017-08-12T23:23:57.651Z,17.80
2017-08-12T23:26:25.188Z,14.10
2017-08-12T23:28:52.714Z,19.67
2017-08-12T23:31:20.237Z,24.67
2017-08-12T23:33:47.788Z,14.70
2017-08-12T23:36:15.302Z,20.93
2017-08-12T23:38:43.219Z,14.60
2017-08-12T23:41:10.753Z,17.40
2017-08-12T23:43:38.671Z,17.60
2017-08-12T23:46:07.103Z,21.37
2017-08-12T23:48:34.662Z,26.30
2017-08-12T23:51:03.010Z,27.47
2017-08-12T23:53:30.529Z,18.03
2017-08-12T23:55:58.054Z,20.70
2017-08-12T23:58:25.958Z,15.10
